Bronte, Texas
Current Conditions -  °F | °C
As of 3:51 PM on Friday 24 Oct 2014 (Local Time) from KSJT Reporting Station
Clear Clear  
Wind Chill: 87°   Ceiling: Unl
Heat Index: 87°   Visibility: 10mi
Dew Point: 52°   Wind: 7mph
Humidity: 30%   Direction: NA
Pressure: 30.09"   Gusts: NA
Location:  31.89°N, 100.29°W
Report Text: KSJT 242051Z VRB06KT 10SM CLR 31/11 A3009 RMK AO2 SLP170 T03060111 56026
Loading
Personal Weather Stations






























Interactive Weather Map New forecast layout! Learn more

10-Day Weather Forecast

Advertisements
Track Severe Weather on mobile